sensor_id;sensor_type;location;lat;lon;timestamp;P1;durP1;ratioP1;P2;durP2;ratioP2
64571;SDS011;51155;51.984;21.208;2024-01-15T12:50:46;4.00;;;1.80;;
64571;SDS011;51155;51.984;21.208;2024-01-15T12:53:19;2.70;;;1.60;;
64571;SDS011;51155;51.984;21.208;2024-01-15T12:55:51;3.70;;;1.80;;
64571;SDS011;51155;51.984;21.208;2024-01-15T12:58:23;3.90;;;1.80;;
64571;SDS011;51155;51.984;21.208;2024-01-15T13:00:55;3.10;;;1.60;;
64571;SDS011;51155;51.984;21.208;2024-01-15T13:03:26;3.90;;;1.80;;
64571;SDS011;51155;51.984;21.208;2024-01-15T13:05:58;3.90;;;1.70;;
64571;SDS011;51155;51.984;21.208;2024-01-15T13:08:30;3.00;;;1.60;;
64571;SDS011;51155;51.984;21.208;2024-01-15T13:11:02;2.60;;;1.50;;
64571;SDS011;51155;51.984;21.208;2024-01-15T13:16:07;4.00;;;1.70;;
64571;SDS011;51155;51.984;21.208;2024-01-15T13:18:39;2.60;;;1.70;;
64571;SDS011;51155;51.984;21.208;2024-01-15T13:21:13;3.90;;;1.80;;
64571;SDS011;51155;51.984;21.208;2024-01-15T13:23:45;3.70;;;2.00;;
64571;SDS011;51155;51.984;21.208;2024-01-15T13:26:17;4.80;;;2.00;;
64571;SDS011;51155;51.984;21.208;2024-01-15T13:28:50;3.20;;;1.70;;
64571;SDS011;51155;51.984;21.208;2024-01-15T13:31:22;3.40;;;1.70;;
64571;SDS011;51155;51.984;21.208;2024-01-15T13:33:54;3.60;;;1.60;;
64571;SDS011;51155;51.984;21.208;2024-01-15T13:36:27;3.30;;;1.70;;
64571;SDS011;51155;51.984;21.208;2024-01-15T13:38:59;3.30;;;1.80;;
64571;SDS011;51155;51.984;21.208;2024-01-15T13:41:31;2.90;;;1.70;;
64571;SDS011;51155;51.984;21.208;2024-01-15T13:44:02;3.30;;;1.80;;
64571;SDS011;51155;51.984;21.208;2024-01-15T13:46:35;3.40;;;1.90;;
64571;SDS011;51155;51.984;21.208;2024-01-15T13:49:07;2.90;;;1.70;;
64571;SDS011;51155;51.984;21.208;2024-01-15T13:51:41;2.90;;;1.80;;
64571;SDS011;51155;51.984;21.208;2024-01-15T13:54:13;3.50;;;2.10;;
64571;SDS011;51155;51.984;21.208;2024-01-15T13:56:45;2.70;;;1.80;;
64571;SDS011;51155;51.984;21.208;2024-01-15T13:59:18;2.90;;;1.70;;
64571;SDS011;51155;51.984;21.208;2024-01-15T14:01:50;2.60;;;1.80;;
64571;SDS011;51155;51.984;21.208;2024-01-15T14:04:22;2.30;;;1.50;;
64571;SDS011;51155;51.984;21.208;2024-01-15T14:06:53;3.90;;;1.80;;
64571;SDS011;51155;51.984;21.208;2024-01-15T14:09:25;3.70;;;1.70;;
64571;SDS011;51155;51.984;21.208;2024-01-15T14:11:57;4.40;;;2.10;;
64571;SDS011;51155;51.984;21.208;2024-01-15T14:14:29;2.60;;;1.60;;
64571;SDS011;51155;51.984;21.208;2024-01-15T14:17:01;3.60;;;1.90;;
64571;SDS011;51155;51.984;21.208;2024-01-15T14:19:32;2.80;;;1.80;;
64571;SDS011;51155;51.984;21.208;2024-01-15T14:22:05;3.10;;;1.90;;
64571;SDS011;51155;51.984;21.208;2024-01-15T14:24:36;2.90;;;1.80;;
64571;SDS011;51155;51.984;21.208;2024-01-15T14:27:08;4.20;;;1.70;;
64571;SDS011;51155;51.984;21.208;2024-01-15T14:29:40;3.60;;;1.80;;
64571;SDS011;51155;51.984;21.208;2024-01-15T14:32:12;2.90;;;2.10;;
64571;SDS011;51155;51.984;21.208;2024-01-15T14:34:44;3.80;;;2.10;;
64571;SDS011;51155;51.984;21.208;2024-01-15T14:37:16;3.70;;;1.60;;
64571;SDS011;51155;51.984;21.208;2024-01-15T14:39:48;3.60;;;1.90;;
64571;SDS011;51155;51.984;21.208;2024-01-15T14:42:19;3.70;;;1.90;;
64571;SDS011;51155;51.984;21.208;2024-01-15T14:44:51;4.00;;;2.40;;
64571;SDS011;51155;51.984;21.208;2024-01-15T14:47:23;2.10;;;1.80;;
64571;SDS011;51155;51.984;21.208;2024-01-15T14:49:56;7.60;;;2.20;;
64571;SDS011;51155;51.984;21.208;2024-01-15T14:52:29;4.20;;;2.40;;
64571;SDS011;51155;51.984;21.208;2024-01-15T14:55:00;3.60;;;2.50;;
64571;SDS011;51155;51.984;21.208;2024-01-15T14:57:32;4.30;;;3.10;;
64571;SDS011;51155;51.984;21.208;2024-01-15T15:00:06;5.10;;;3.50;;
64571;SDS011;51155;51.984;21.208;2024-01-15T15:02:39;6.90;;;2.90;;
64571;SDS011;51155;51.984;21.208;2024-01-15T15:05:10;6.00;;;3.40;;
64571;SDS011;51155;51.984;21.208;2024-01-15T15:07:45;5.70;;;3.20;;
64571;SDS011;51155;51.984;21.208;2024-01-15T15:10:17;6.00;;;3.20;;
64571;SDS011;51155;51.984;21.208;2024-01-15T15:12:48;7.40;;;3.30;;
64571;SDS011;51155;51.984;21.208;2024-01-15T15:15:20;4.80;;;2.80;;
64571;SDS011;51155;51.984;21.208;2024-01-15T15:17:55;6.80;;;2.90;;
64571;SDS011;51155;51.984;21.208;2024-01-15T15:20:27;5.30;;;3.00;;
64571;SDS011;51155;51.984;21.208;2024-01-15T15:22:59;6.80;;;3.40;;
64571;SDS011;51155;51.984;21.208;2024-01-15T15:25:30;5.50;;;3.10;;
64571;SDS011;51155;51.984;21.208;2024-01-15T15:28:03;6.70;;;3.40;;
64571;SDS011;51155;51.984;21.208;2024-01-15T15:30:37;4.90;;;2.80;;
64571;SDS011;51155;51.984;21.208;2024-01-15T15:33:09;5.20;;;3.20;;
64571;SDS011;51155;51.984;21.208;2024-01-15T15:35:41;4.00;;;2.40;;
64571;SDS011;51155;51.984;21.208;2024-01-15T15:38:12;4.60;;;2.70;;
64571;SDS011;51155;51.984;21.208;2024-01-15T15:40:44;5.30;;;2.80;;
64571;SDS011;51155;51.984;21.208;2024-01-15T15:43:16;5.10;;;2.50;;
64571;SDS011;51155;51.984;21.208;2024-01-15T15:45:48;4.50;;;2.80;;
64571;SDS011;51155;51.984;21.208;2024-01-15T15:48:19;4.90;;;2.80;;
64571;SDS011;51155;51.984;21.208;2024-01-15T15:50:51;3.90;;;2.90;;
64571;SDS011;51155;51.984;21.208;2024-01-15T15:53:23;5.20;;;2.70;;
64571;SDS011;51155;51.984;21.208;2024-01-15T15:55:56;6.60;;;3.10;;
64571;SDS011;51155;51.984;21.208;2024-01-15T15:58:28;5.20;;;3.10;;
64571;SDS011;51155;51.984;21.208;2024-01-15T16:01:01;7.00;;;2.80;;
64571;SDS011;51155;51.984;21.208;2024-01-15T16:03:33;5.90;;;2.90;;
64571;SDS011;51155;51.984;21.208;2024-01-15T16:06:05;5.70;;;2.80;;
64571;SDS011;51155;51.984;21.208;2024-01-15T16:08:37;4.70;;;2.90;;
64571;SDS011;51155;51.984;21.208;2024-01-15T16:11:09;5.90;;;3.00;;
64571;SDS011;51155;51.984;21.208;2024-01-15T16:13:40;4.70;;;2.70;;
64571;SDS011;51155;51.984;21.208;2024-01-15T16:16:12;6.60;;;2.70;;
64571;SDS011;51155;51.984;21.208;2024-01-15T16:19:04;5.30;;;2.70;;
64571;SDS011;51155;51.984;21.208;2024-01-15T16:21:56;6.20;;;2.20;;
64571;SDS011;51155;51.984;21.208;2024-01-15T16:24:48;3.80;;;2.60;;
64571;SDS011;51155;51.984;21.208;2024-01-15T16:27:24;4.60;;;2.30;;
64571;SDS011;51155;51.984;21.208;2024-01-15T16:29:56;4.60;;;2.50;;
64571;SDS011;51155;51.984;21.208;2024-01-15T16:32:27;5.20;;;2.50;;
64571;SDS011;51155;51.984;21.208;2024-01-15T16:34:59;5.20;;;2.80;;
64571;SDS011;51155;51.984;21.208;2024-01-15T16:37:31;6.10;;;2.90;;
64571;SDS011;51155;51.984;21.208;2024-01-15T16:40:03;9.20;;;3.00;;
64571;SDS011;51155;51.984;21.208;2024-01-15T16:42:35;7.30;;;2.90;;
64571;SDS011;51155;51.984;21.208;2024-01-15T16:45:07;6.80;;;2.90;;
64571;SDS011;51155;51.984;21.208;2024-01-15T16:47:40;3.80;;;2.70;;
64571;SDS011;51155;51.984;21.208;2024-01-15T16:50:12;6.10;;;2.80;;
64571;SDS011;51155;51.984;21.208;2024-01-15T16:52:44;5.40;;;2.50;;
64571;SDS011;51155;51.984;21.208;2024-01-15T16:55:15;3.60;;;2.40;;
64571;SDS011;51155;51.984;21.208;2024-01-15T16:57:48;4.40;;;2.50;;
64571;SDS011;51155;51.984;21.208;2024-01-15T17:00:20;6.60;;;2.70;;
64571;SDS011;51155;51.984;21.208;2024-01-15T17:02:53;5.90;;;2.50;;
64571;SDS011;51155;51.984;21.208;2024-01-15T17:07:57;5.20;;;2.50;;
64571;SDS011;51155;51.984;21.208;2024-01-15T17:10:29;6.30;;;3.00;;
64571;SDS011;51155;51.984;21.208;2024-01-15T17:13:02;4.20;;;2.30;;
64571;SDS011;51155;51.984;21.208;2024-01-15T17:18:07;4.00;;;2.30;;
64571;SDS011;51155;51.984;21.208;2024-01-15T17:20:41;4.90;;;2.50;;
64571;SDS011;51155;51.984;21.208;2024-01-15T17:23:17;4.30;;;2.30;;
64571;SDS011;51155;51.984;21.208;2024-01-15T17:25:50;5.90;;;2.60;;
64571;SDS011;51155;51.984;21.208;2024-01-15T17:28:22;4.60;;;2.50;;
64571;SDS011;51155;51.984;21.208;2024-01-15T17:30:55;4.10;;;2.10;;
64571;SDS011;51155;51.984;21.208;2024-01-15T17:33:26;4.70;;;2.60;;
64571;SDS011;51155;51.984;21.208;2024-01-15T17:35:58;4.20;;;2.50;;
64571;SDS011;51155;51.984;21.208;2024-01-15T17:38:30;3.80;;;2.60;;
64571;SDS011;51155;51.984;21.208;2024-01-15T17:41:02;4.00;;;2.10;;
64571;SDS011;51155;51.984;21.208;2024-01-15T17:43:34;3.50;;;2.70;;
64571;SDS011;51155;51.984;21.208;2024-01-15T17:46:08;4.20;;;2.40;;
64571;SDS011;51155;51.984;21.208;2024-01-15T17:48:40;4.10;;;2.60;;
64571;SDS011;51155;51.984;21.208;2024-01-15T17:51:17;4.40;;;2.40;;
64571;SDS011;51155;51.984;21.208;2024-01-15T17:53:49;3.80;;;2.30;;
64571;SDS011;51155;51.984;21.208;2024-01-15T17:56:21;8.60;;;2.70;;
64571;SDS011;51155;51.984;21.208;2024-01-15T17:58:53;4.00;;;2.40;;
64571;SDS011;51155;51.984;21.208;2024-01-15T18:01:26;4.20;;;2.50;;
64571;SDS011;51155;51.984;21.208;2024-01-15T18:03:59;5.10;;;2.70;;
64571;SDS011;51155;51.984;21.208;2024-01-15T18:06:35;3.50;;;2.30;;
64571;SDS011;51155;51.984;21.208;2024-01-15T18:09:08;6.20;;;2.90;;
64571;SDS011;51155;51.984;21.208;2024-01-15T18:14:12;4.80;;;2.40;;
64571;SDS011;51155;51.984;21.208;2024-01-15T18:16:44;3.60;;;2.10;;
64571;SDS011;51155;51.984;21.208;2024-01-15T18:19:19;3.90;;;2.60;;
64571;SDS011;51155;51.984;21.208;2024-01-15T18:21:51;4.20;;;2.50;;
64571;SDS011;51155;51.984;21.208;2024-01-15T18:24:24;4.80;;;2.40;;
64571;SDS011;51155;51.984;21.208;2024-01-15T18:26:55;3.70;;;2.30;;
64571;SDS011;51155;51.984;21.208;2024-01-15T18:29:27;3.70;;;2.40;;
64571;SDS011;51155;51.984;21.208;2024-01-15T18:31:59;3.90;;;2.20;;
64571;SDS011;51155;51.984;21.208;2024-01-15T18:34:31;5.10;;;2.40;;
64571;SDS011;51155;51.984;21.208;2024-01-15T18:37:04;4.80;;;2.30;;
64571;SDS011;51155;51.984;21.208;2024-01-15T18:39:36;4.00;;;2.30;;
64571;SDS011;51155;51.984;21.208;2024-01-15T18:42:08;5.50;;;2.50;;
64571;SDS011;51155;51.984;21.208;2024-01-15T18:44:40;5.00;;;2.70;;
64571;SDS011;51155;51.984;21.208;2024-01-15T18:47:12;4.50;;;2.70;;
64571;SDS011;51155;51.984;21.208;2024-01-15T18:49:44;5.20;;;2.40;;
64571;SDS011;51155;51.984;21.208;2024-01-15T18:52:16;4.50;;;2.40;;
64571;SDS011;51155;51.984;21.208;2024-01-15T18:54:49;3.90;;;2.40;;
64571;SDS011;51155;51.984;21.208;2024-01-15T18:57:21;3.70;;;2.40;;
64571;SDS011;51155;51.984;21.208;2024-01-15T18:59:53;4.70;;;2.80;;
64571;SDS011;51155;51.984;21.208;2024-01-15T19:02:25;4.50;;;2.60;;
64571;SDS011;51155;51.984;21.208;2024-01-15T19:04:56;4.50;;;2.60;;
64571;SDS011;51155;51.984;21.208;2024-01-15T19:07:29;3.60;;;2.50;;
64571;SDS011;51155;51.984;21.208;2024-01-15T19:10:00;3.30;;;2.50;;
64571;SDS011;51155;51.984;21.208;2024-01-15T19:12:32;4.60;;;2.80;;
64571;SDS011;51155;51.984;21.208;2024-01-15T19:15:05;4.50;;;2.80;;
64571;SDS011;51155;51.984;21.208;2024-01-15T19:17:37;3.60;;;2.70;;
64571;SDS011;51155;51.984;21.208;2024-01-15T19:20:09;3.80;;;2.40;;
64571;SDS011;51155;51.984;21.208;2024-01-15T19:22:42;3.90;;;2.40;;
64571;SDS011;51155;51.984;21.208;2024-01-15T19:25:14;4.50;;;2.60;;
64571;SDS011;51155;51.984;21.208;2024-01-15T19:27:46;4.20;;;2.50;;
64571;SDS011;51155;51.984;21.208;2024-01-15T19:30:18;3.80;;;2.60;;
64571;SDS011;51155;51.984;21.208;2024-01-15T19:32:51;3.50;;;2.10;;
64571;SDS011;51155;51.984;21.208;2024-01-15T19:35:23;4.40;;;2.20;;
64571;SDS011;51155;51.984;21.208;2024-01-15T19:37:55;4.80;;;2.90;;
64571;SDS011;51155;51.984;21.208;2024-01-15T19:40:26;4.50;;;2.60;;
64571;SDS011;51155;51.984;21.208;2024-01-15T19:43:01;4.40;;;2.60;;
64571;SDS011;51155;51.984;21.208;2024-01-15T19:45:33;4.20;;;2.40;;
64571;SDS011;51155;51.984;21.208;2024-01-15T19:48:05;3.50;;;2.40;;
64571;SDS011;51155;51.984;21.208;2024-01-15T19:53:09;4.20;;;2.30;;
64571;SDS011;51155;51.984;21.208;2024-01-15T19:55:41;4.10;;;2.20;;
64571;SDS011;51155;51.984;21.208;2024-01-15T19:58:13;3.40;;;2.10;;
64571;SDS011;51155;51.984;21.208;2024-01-15T20:00:45;3.60;;;2.10;;
64571;SDS011;51155;51.984;21.208;2024-01-15T20:03:17;3.50;;;2.20;;
64571;SDS011;51155;51.984;21.208;2024-01-15T20:05:49;3.70;;;1.90;;
64571;SDS011;51155;51.984;21.208;2024-01-15T20:08:21;3.60;;;2.10;;
64571;SDS011;51155;51.984;21.208;2024-01-15T20:10:53;3.00;;;2.10;;
64571;SDS011;51155;51.984;21.208;2024-01-15T20:13:25;4.40;;;2.20;;
64571;SDS011;51155;51.984;21.208;2024-01-15T20:15:56;4.70;;;2.50;;
64571;SDS011;51155;51.984;21.208;2024-01-15T20:18:28;3.90;;;2.00;;
64571;SDS011;51155;51.984;21.208;2024-01-15T20:21:00;4.40;;;2.40;;
64571;SDS011;51155;51.984;21.208;2024-01-15T20:23:32;2.80;;;1.80;;
64571;SDS011;51155;51.984;21.208;2024-01-15T20:26:10;2.90;;;1.90;;
64571;SDS011;51155;51.984;21.208;2024-01-15T20:28:42;4.70;;;2.50;;
64571;SDS011;51155;51.984;21.208;2024-01-15T20:31:18;4.60;;;2.00;;
64571;SDS011;51155;51.984;21.208;2024-01-15T20:33:50;3.50;;;2.20;;
64571;SDS011;51155;51.984;21.208;2024-01-15T20:36:22;3.80;;;2.10;;
64571;SDS011;51155;51.984;21.208;2024-01-15T20:38:53;3.60;;;2.10;;
64571;SDS011;51155;51.984;21.208;2024-01-15T20:41:26;2.70;;;1.70;;
64571;SDS011;51155;51.984;21.208;2024-01-15T20:43:58;3.20;;;2.10;;
64571;SDS011;51155;51.984;21.208;2024-01-15T20:46:29;2.80;;;2.10;;
64571;SDS011;51155;51.984;21.208;2024-01-15T20:49:01;4.30;;;2.00;;
64571;SDS011;51155;51.984;21.208;2024-01-15T20:51:33;4.00;;;2.30;;
64571;SDS011;51155;51.984;21.208;2024-01-15T20:54:05;3.20;;;1.80;;
64571;SDS011;51155;51.984;21.208;2024-01-15T20:56:37;3.70;;;1.90;;
64571;SDS011;51155;51.984;21.208;2024-01-15T20:59:08;2.70;;;1.80;;
64571;SDS011;51155;51.984;21.208;2024-01-15T21:01:40;3.00;;;1.80;;
64571;SDS011;51155;51.984;21.208;2024-01-15T21:04:12;2.90;;;1.90;;
64571;SDS011;51155;51.984;21.208;2024-01-15T21:06:44;3.10;;;1.80;;
64571;SDS011;51155;51.984;21.208;2024-01-15T21:09:15;3.80;;;2.10;;
64571;SDS011;51155;51.984;21.208;2024-01-15T21:11:47;3.40;;;1.90;;
64571;SDS011;51155;51.984;21.208;2024-01-15T21:14:19;3.00;;;1.70;;
64571;SDS011;51155;51.984;21.208;2024-01-15T21:16:51;3.30;;;1.90;;
64571;SDS011;51155;51.984;21.208;2024-01-15T21:19:22;2.80;;;1.80;;
64571;SDS011;51155;51.984;21.208;2024-01-15T21:21:54;3.00;;;1.80;;
64571;SDS011;51155;51.984;21.208;2024-01-15T21:24:26;3.30;;;1.80;;
64571;SDS011;51155;51.984;21.208;2024-01-15T21:26:59;3.00;;;1.50;;
64571;SDS011;51155;51.984;21.208;2024-01-15T21:29:31;2.80;;;1.80;;
64571;SDS011;51155;51.984;21.208;2024-01-15T21:32:03;3.00;;;1.50;;
64571;SDS011;51155;51.984;21.208;2024-01-15T21:34:36;4.00;;;2.00;;
64571;SDS011;51155;51.984;21.208;2024-01-15T21:37:08;3.80;;;1.80;;
64571;SDS011;51155;51.984;21.208;2024-01-15T21:39:40;2.50;;;1.60;;
64571;SDS011;51155;51.984;21.208;2024-01-15T21:42:14;3.30;;;1.80;;
64571;SDS011;51155;51.984;21.208;2024-01-15T21:47:19;3.70;;;2.00;;
64571;SDS011;51155;51.984;21.208;2024-01-15T21:49:50;5.30;;;2.00;;
64571;SDS011;51155;51.984;21.208;2024-01-15T21:52:22;3.60;;;2.40;;
64571;SDS011;51155;51.984;21.208;2024-01-15T21:54:54;4.20;;;2.20;;
64571;SDS011;51155;51.984;21.208;2024-01-15T21:57:25;4.10;;;2.20;;
64571;SDS011;51155;51.984;21.208;2024-01-15T21:59:58;5.10;;;2.70;;
64571;SDS011;51155;51.984;21.208;2024-01-15T22:02:40;4.60;;;2.50;;
64571;SDS011;51155;51.984;21.208;2024-01-15T22:05:13;5.90;;;3.00;;
64571;SDS011;51155;51.984;21.208;2024-01-15T22:07:45;6.00;;;3.70;;
64571;SDS011;51155;51.984;21.208;2024-01-15T22:10:17;6.80;;;3.80;;
64571;SDS011;51155;51.984;21.208;2024-01-15T22:12:48;7.40;;;4.30;;
64571;SDS011;51155;51.984;21.208;2024-01-15T22:15:20;8.20;;;4.30;;
64571;SDS011;51155;51.984;21.208;2024-01-15T22:17:52;6.40;;;4.20;;
64571;SDS011;51155;51.984;21.208;2024-01-15T22:20:24;9.00;;;4.90;;
64571;SDS011;51155;51.984;21.208;2024-01-15T22:22:56;8.10;;;5.30;;
64571;SDS011;51155;51.984;21.208;2024-01-15T22:25:28;9.20;;;4.80;;
64571;SDS011;51155;51.984;21.208;2024-01-15T22:27:59;8.40;;;5.00;;
64571;SDS011;51155;51.984;21.208;2024-01-15T22:30:31;8.50;;;4.80;;
64571;SDS011;51155;51.984;21.208;2024-01-15T22:33:03;9.90;;;5.10;;
64571;SDS011;51155;51.984;21.208;2024-01-15T22:35:35;9.20;;;4.80;;
64571;SDS011;51155;51.984;21.208;2024-01-15T22:38:07;7.40;;;4.50;;
64571;SDS011;51155;51.984;21.208;2024-01-15T22:40:39;8.70;;;5.00;;
64571;SDS011;51155;51.984;21.208;2024-01-15T22:43:11;8.40;;;5.00;;
64571;SDS011;51155;51.984;21.208;2024-01-15T22:45:42;7.90;;;5.20;;
64571;SDS011;51155;51.984;21.208;2024-01-15T22:48:14;8.40;;;4.90;;
64571;SDS011;51155;51.984;21.208;2024-01-15T22:50:47;9.50;;;5.90;;
64571;SDS011;51155;51.984;21.208;2024-01-15T22:53:18;9.00;;;5.50;;
64571;SDS011;51155;51.984;21.208;2024-01-15T22:55:50;9.60;;;5.00;;
64571;SDS011;51155;51.984;21.208;2024-01-15T22:58:24;11.00;;;5.80;;
64571;SDS011;51155;51.984;21.208;2024-01-15T23:00:56;8.90;;;5.20;;
64571;SDS011;51155;51.984;21.208;2024-01-15T23:03:30;9.30;;;5.50;;
64571;SDS011;51155;51.984;21.208;2024-01-15T23:06:02;10.10;;;5.60;;
64571;SDS011;51155;51.984;21.208;2024-01-15T23:08:34;9.20;;;5.60;;
64571;SDS011;51155;51.984;21.208;2024-01-15T23:11:09;9.40;;;5.30;;
64571;SDS011;51155;51.984;21.208;2024-01-15T23:13:44;9.30;;;5.50;;
64571;SDS011;51155;51.984;21.208;2024-01-15T23:16:15;8.30;;;5.20;;
64571;SDS011;51155;51.984;21.208;2024-01-15T23:18:47;9.60;;;5.90;;
64571;SDS011;51155;51.984;21.208;2024-01-15T23:21:19;10.30;;;6.10;;
64571;SDS011;51155;51.984;21.208;2024-01-15T23:23:51;11.90;;;5.80;;
64571;SDS011;51155;51.984;21.208;2024-01-15T23:26:23;10.00;;;6.00;;
64571;SDS011;51155;51.984;21.208;2024-01-15T23:28:55;8.50;;;5.60;;
64571;SDS011;51155;51.984;21.208;2024-01-15T23:31:27;10.20;;;6.20;;
64571;SDS011;51155;51.984;21.208;2024-01-15T23:33:59;9.70;;;5.60;;
64571;SDS011;51155;51.984;21.208;2024-01-15T23:36:31;10.20;;;6.00;;
64571;SDS011;51155;51.984;21.208;2024-01-15T23:39:02;8.90;;;5.60;;
64571;SDS011;51155;51.984;21.208;2024-01-15T23:41:34;8.00;;;5.10;;
64571;SDS011;51155;51.984;21.208;2024-01-15T23:44:08;9.00;;;5.10;;
64571;SDS011;51155;51.984;21.208;2024-01-15T23:49:12;8.50;;;5.50;;
64571;SDS011;51155;51.984;21.208;2024-01-15T23:51:44;10.10;;;5.80;;
64571;SDS011;51155;51.984;21.208;2024-01-15T23:54:16;9.20;;;5.80;;
64571;SDS011;51155;51.984;21.208;2024-01-15T23:56:47;8.70;;;5.30;;
64571;SDS011;51155;51.984;21.208;2024-01-15T23:59:19;7.90;;;4.80;;
